createdAt,value
2023-03-21T00:02:34.003Z,14.73
2023-03-21T00:05:34.514Z,14.62
2023-03-21T00:08:34.125Z,14.62
2023-03-21T00:11:34.172Z,14.62
2023-03-21T00:14:34.000Z,14.64
2023-03-21T00:16:34.898Z,14.66
2023-03-21T00:19:34.737Z,14.6
2023-03-21T00:22:33.993Z,14.64
2023-03-21T00:24:34.388Z,14.67
2023-03-21T00:27:50.297Z,14.71
2023-03-21T00:29:34.754Z,14.73
2023-03-21T00:32:37.567Z,14.74
2023-03-21T00:35:57.722Z,14.73
2023-03-21T00:37:33.982Z,14.73
2023-03-21T00:39:34.073Z,14.71
2023-03-21T00:41:42.337Z,14.71
2023-03-21T00:44:34.008Z,14.7
2023-03-21T00:47:34.051Z,14.65
2023-03-21T00:49:34.185Z,14.63
2023-03-21T00:51:34.294Z,14.61
2023-03-21T00:54:34.705Z,14.6
2023-03-21T00:57:38.912Z,14.61
2023-03-21T00:59:34.000Z,14.6
2023-03-21T01:01:34.807Z,14.58
2023-03-21T01:04:34.000Z,14.56
2023-03-21T01:07:33.983Z,14.49
2023-03-21T01:09:33.999Z,14.44
2023-03-21T01:12:34.232Z,14.41
2023-03-21T01:15:33.980Z,14.35
2023-03-21T01:18:34.545Z,14.33
2023-03-21T01:20:34.790Z,14.25
2023-03-21T01:23:33.970Z,14.18
2023-03-21T01:25:33.984Z,14.2
2023-03-21T01:27:34.441Z,14.26
2023-03-21T01:29:34.680Z,14.31
2023-03-21T01:33:34.075Z,14.29
2023-03-21T01:35:41.121Z,14.29
2023-03-21T01:38:33.993Z,14.31
2023-03-21T01:40:34.072Z,14.32
2023-03-21T01:42:34.540Z,14.35
2023-03-21T01:45:34.067Z,14.34
2023-03-21T01:48:34.021Z,14.33
2023-03-21T01:50:34.597Z,14.31
2023-03-21T01:53:34.017Z,14.3
2023-03-21T01:55:34.873Z,14.29
2023-03-21T01:58:34.025Z,14.27
2023-03-21T02:00:34.852Z,14.26
2023-03-21T02:03:36.214Z,14.24
2023-03-21T02:05:34.029Z,14.23
2023-03-21T02:07:34.363Z,14.22
2023-03-21T02:09:34.721Z,14.18
2023-03-21T02:12:33.995Z,14.15
2023-03-21T02:15:35.155Z,14.14
2023-03-21T02:18:33.994Z,14.12
2023-03-21T02:20:34.835Z,14.12
2023-03-21T02:23:34.000Z,14.12
2023-03-21T02:26:41.608Z,14.08
2023-03-21T02:29:33.979Z,14.04
2023-03-21T02:32:37.660Z,14.02
2023-03-21T02:34:34.006Z,14.01
2023-03-21T02:36:34.418Z,14.01
2023-03-21T02:38:34.857Z,13.92
2023-03-21T02:41:39.970Z,13.9
2023-03-21T02:43:34.143Z,13.88
2023-03-21T02:46:42.847Z,13.83
2023-03-21T02:48:44.701Z,13.86
2023-03-21T02:51:33.981Z,13.8
2023-03-21T02:53:34.800Z,13.76
2023-03-21T02:56:34.282Z,13.66
2023-03-21T02:59:35.823Z,13.57
2023-03-21T03:01:34.435Z,13.58
2023-03-21T03:04:34.012Z,13.53
2023-03-21T03:06:34.168Z,13.54
2023-03-21T03:09:33.986Z,13.54
2023-03-21T03:11:34.037Z,13.54
2023-03-21T03:13:34.017Z,13.48
2023-03-21T03:16:34.025Z,13.38
2023-03-21T03:18:34.112Z,13.41
2023-03-21T03:21:34.198Z,13.33
2023-03-21T03:23:34.700Z,13.29
2023-03-21T03:26:34.381Z,13.26
2023-03-21T03:29:34.008Z,13.24
2023-03-21T03:32:34.561Z,13.15
2023-03-21T03:35:34.819Z,13.15
2023-03-21T03:38:34.497Z,13.15
2023-03-21T03:40:35.906Z,13.15
2023-03-21T03:42:34.582Z,13.15
2023-03-21T03:45:34.559Z,13.13
2023-03-21T03:48:34.134Z,13.13
2023-03-21T03:50:34.378Z,13.09
2023-03-21T03:53:34.454Z,13.09
2023-03-21T03:56:34.044Z,13.12
2023-03-21T03:59:34.546Z,13.04
2023-03-21T04:02:34.190Z,12.94
2023-03-21T04:05:34.023Z,12.95
2023-03-21T04:07:34.798Z,12.97
2023-03-21T04:10:34.028Z,12.97
2023-03-21T04:13:34.513Z,12.93
2023-03-21T04:16:35.724Z,13
2023-03-21T04:19:34.906Z,12.96
2023-03-21T04:22:34.001Z,12.96
2023-03-21T04:24:34.041Z,12.89
2023-03-21T04:27:34.009Z,12.83
2023-03-21T04:30:34.696Z,12.79
2023-03-21T04:33:33.988Z,12.77
2023-03-21T04:35:35.391Z,12.81
2023-03-21T04:38:34.063Z,12.84
2023-03-21T04:41:33.953Z,12.79
2023-03-21T04:43:34.673Z,12.78
2023-03-21T04:46:34.316Z,12.75
2023-03-21T04:49:34.536Z,12.78
2023-03-21T04:51:34.543Z,12.8
2023-03-21T04:53:34.799Z,12.79
2023-03-21T04:56:34.200Z,12.79
2023-03-21T04:58:34.379Z,12.79
2023-03-21T05:00:34.548Z,12.8
2023-03-21T05:02:34.707Z,12.86
2023-03-21T05:05:33.993Z,12.8
2023-03-21T05:07:34.060Z,12.76
2023-03-21T05:10:34.619Z,12.84
2023-03-21T05:13:34.379Z,12.92
2023-03-21T05:16:34.801Z,13.06
2023-03-21T05:19:34.056Z,13.16
2023-03-21T05:21:34.823Z,13.22
2023-03-21T05:24:34.012Z,13.29
2023-03-21T05:26:34.610Z,13.32
2023-03-21T05:29:34.460Z,13.33
2023-03-21T05:31:34.639Z,13.37
2023-03-21T05:34:34.033Z,13.41
2023-03-21T05:36:34.130Z,13.42
2023-03-21T05:38:34.341Z,13.43
2023-03-21T05:41:34.557Z,13.42
2023-03-21T05:44:34.131Z,13.42
2023-03-21T05:46:34.487Z,13.38
2023-03-21T05:49:34.629Z,13.42
2023-03-21T05:52:34.849Z,13.4
2023-03-21T05:55:34.007Z,13.45
2023-03-21T05:57:34.053Z,13.47
2023-03-21T06:00:34.343Z,13.49
2023-03-21T06:03:34.802Z,13.32
2023-03-21T06:05:34.806Z,13.29
2023-03-21T06:08:34.041Z,13.2
2023-03-21T06:10:34.641Z,13.11
2023-03-21T06:13:34.080Z,13.09
2023-03-21T06:16:34.024Z,13.12
2023-03-21T06:19:34.035Z,13.13
2023-03-21T06:22:34.084Z,13.22
2023-03-21T06:24:34.837Z,13.23
2023-03-21T06:27:34.037Z,13.34
2023-03-21T06:29:34.339Z,13.42
2023-03-21T06:32:34.050Z,13.5
2023-03-21T06:34:35.022Z,13.53
2023-03-21T06:37:33.976Z,13.53
2023-03-21T06:39:34.224Z,13.55
2023-03-21T06:42:34.017Z,13.6
2023-03-21T06:44:34.657Z,13.65
2023-03-21T06:47:34.251Z,13.7
2023-03-21T06:50:34.136Z,13.69
2023-03-21T06:53:36.104Z,13.64
2023-03-21T06:56:34.022Z,13.62
2023-03-21T06:58:34.012Z,13.58
2023-03-21T07:00:34.034Z,13.59
2023-03-21T07:02:34.044Z,13.62
2023-03-21T07:04:34.844Z,13.67
2023-03-21T07:07:34.013Z,13.72
2023-03-21T07:10:34.932Z,13.71
2023-03-21T07:13:33.994Z,13.65
2023-03-21T07:15:34.826Z,13.67
2023-03-21T07:18:34.221Z,13.71
2023-03-21T07:21:34.017Z,13.75
2023-03-21T07:23:33.993Z,13.73
2023-03-21T07:25:34.024Z,13.7
2023-03-21T07:28:33.982Z,13.71
2023-03-21T07:30:33.996Z,13.74
2023-03-21T07:32:34.045Z,13.78
2023-03-21T07:34:34.036Z,13.8
2023-03-21T07:36:34.519Z,13.81
2023-03-21T07:39:34.937Z,13.85
2023-03-21T07:42:34.374Z,13.77
2023-03-21T07:45:34.014Z,13.77
2023-03-21T07:48:34.011Z,13.79
2023-03-21T07:50:34.053Z,13.8
2023-03-21T07:52:34.130Z,13.85
2023-03-21T07:54:34.147Z,13.86
2023-03-21T07:57:34.773Z,13.91
2023-03-21T08:00:34.976Z,13.99
2023-03-21T08:03:34.141Z,14.06
2023-03-21T08:05:34.052Z,14.1
2023-03-21T08:08:34.572Z,14.14
2023-03-21T08:11:34.025Z,14.19
2023-03-21T08:13:34.018Z,14.2
2023-03-21T08:15:34.861Z,14.2
2023-03-21T08:18:34.012Z,14.23
2023-03-21T08:20:34.162Z,14.25
2023-03-21T08:23:34.198Z,14.26
2023-03-21T08:25:34.858Z,14.26
2023-03-21T08:28:34.444Z,14.26
2023-03-21T08:31:34.327Z,14.28
2023-03-21T08:34:34.251Z,14.32
2023-03-21T08:36:34.622Z,14.3
2023-03-21T08:39:34.433Z,14.34
2023-03-21T08:42:34.014Z,14.37
2023-03-21T08:44:34.344Z,14.38
2023-03-21T08:47:34.415Z,14.39
2023-03-21T08:50:34.558Z,14.4
2023-03-21T08:53:34.764Z,14.41
2023-03-21T08:56:35.284Z,14.45
2023-03-21T08:59:34.718Z,14.49
2023-03-21T09:02:34.636Z,14.51
2023-03-21T09:05:34.042Z,14.53
2023-03-21T09:08:34.004Z,14.56
2023-03-21T09:10:34.059Z,14.59
2023-03-21T09:13:34.061Z,14.63
2023-03-21T09:15:34.558Z,14.65
2023-03-21T09:18:34.023Z,14.72
2023-03-21T09:20:34.137Z,14.75
2023-03-21T09:23:34.861Z,14.73
2023-03-21T09:26:34.511Z,14.76
2023-03-21T09:29:34.058Z,14.83
2023-03-21T09:32:34.492Z,14.85
2023-03-21T09:35:34.128Z,14.84
2023-03-21T09:38:28.743Z,14.85
2023-03-21T09:40:34.336Z,14.85
2023-03-21T09:43:33.999Z,14.84
2023-03-21T09:46:34.868Z,14.89
2023-03-21T09:49:34.154Z,14.93
2023-03-21T09:52:34.077Z,14.98
2023-03-21T09:55:34.423Z,14.98
2023-03-21T09:58:34.020Z,14.94
2023-03-21T10:00:34.814Z,14.92
2023-03-21T10:03:34.036Z,14.91
2023-03-21T10:06:34.519Z,14.93
2023-03-21T10:09:34.021Z,14.96
2023-03-21T10:12:34.685Z,14.95
2023-03-21T10:14:34.491Z,14.94
2023-03-21T10:17:34.013Z,14.97
2023-03-21T10:20:37.144Z,14.99
2023-03-21T10:22:34.880Z,15
2023-03-21T10:25:34.471Z,15.02
2023-03-21T10:28:46.292Z,15.05
2023-03-21T10:31:34.309Z,15.06
2023-03-21T10:33:34.774Z,15.06
2023-03-21T10:36:34.046Z,15.08
2023-03-21T10:38:34.021Z,15.07
2023-03-21T10:40:35.041Z,15.09
2023-03-21T10:42:34.059Z,15.11
2023-03-21T10:45:34.051Z,15.16
2023-03-21T10:47:34.607Z,15.17
2023-03-21T10:49:40.512Z,15.17
2023-03-21T10:52:34.083Z,15.19
2023-03-21T10:55:34.073Z,15.24
2023-03-21T10:58:34.804Z,15.28
2023-03-21T11:01:34.640Z,15.3
2023-03-21T11:04:34.080Z,15.33
2023-03-21T11:06:34.695Z,15.35
2023-03-21T11:08:35.039Z,15.4
2023-03-21T11:11:34.063Z,15.47
2023-03-21T11:14:34.076Z,15.56
2023-03-21T11:17:33.986Z,15.63
2023-03-21T11:19:34.112Z,15.66
2023-03-21T11:22:41.237Z,15.72
2023-03-21T11:24:34.096Z,15.75
2023-03-21T11:26:34.252Z,15.78
2023-03-21T11:28:34.621Z,15.81
2023-03-21T11:31:34.644Z,15.86
2023-03-21T11:34:34.170Z,15.9
2023-03-21T11:36:34.871Z,15.93
2023-03-21T11:39:34.700Z,16
2023-03-21T11:42:34.033Z,16.04
2023-03-21T11:45:34.137Z,16.04
2023-03-21T11:48:34.656Z,16.1
2023-03-21T11:51:34.918Z,16.15
2023-03-21T11:54:34.065Z,16.19
2023-03-21T11:57:34.057Z,16.27
2023-03-21T11:59:34.458Z,16.33
2023-03-21T12:02:34.080Z,16.45
2023-03-21T12:05:34.309Z,16.54
2023-03-21T12:07:35.319Z,16.65
2023-03-21T12:10:34.219Z,16.73
2023-03-21T12:13:34.126Z,16.77
2023-03-21T12:16:34.509Z,16.79
2023-03-21T12:19:34.055Z,16.83
2023-03-21T12:21:34.068Z,16.83
2023-03-21T12:24:37.237Z,16.81
2023-03-21T12:26:35.060Z,16.79
2023-03-21T12:29:34.503Z,16.77
2023-03-21T12:32:35.585Z,16.78
2023-03-21T12:34:34.889Z,16.79
2023-03-21T12:37:34.304Z,16.79
2023-03-21T12:39:34.638Z,16.81
2023-03-21T12:42:34.642Z,16.81
2023-03-21T12:45:44.145Z,16.81
2023-03-21T12:47:34.661Z,16.83
2023-03-21T12:49:34.821Z,16.81
2023-03-21T12:51:35.061Z,16.82
2023-03-21T12:54:34.074Z,16.83
2023-03-21T12:57:34.940Z,16.85
2023-03-21T12:59:34.618Z,16.83
2023-03-21T13:02:34.750Z,16.82
2023-03-21T13:05:34.094Z,16.81
2023-03-21T13:07:34.098Z,16.83
2023-03-21T13:09:37.532Z,16.81
2023-03-21T13:12:34.228Z,16.78
2023-03-21T13:14:34.102Z,16.77
2023-03-21T13:17:34.666Z,16.76
2023-03-21T13:20:34.120Z,16.73
2023-03-21T13:22:34.756Z,16.71
2023-03-21T13:25:34.156Z,16.7
2023-03-21T13:27:34.794Z,16.69
2023-03-21T13:30:35.076Z,16.68
2023-03-21T13:33:34.185Z,16.69
2023-03-21T13:36:34.858Z,16.67
2023-03-21T13:38:34.940Z,16.66
2023-03-21T13:41:34.134Z,16.64
2023-03-21T13:44:37.228Z,16.62
2023-03-21T13:47:34.707Z,16.61
2023-03-21T13:49:34.732Z,16.6
2023-03-21T13:51:34.891Z,16.58
2023-03-21T13:54:34.122Z,16.57
2023-03-21T13:57:34.082Z,16.54
2023-03-21T13:59:35.260Z,16.5
2023-03-21T14:02:34.640Z,16.49
2023-03-21T14:05:34.264Z,16.5
2023-03-21T14:07:34.893Z,16.52
2023-03-21T14:10:34.090Z,16.49
2023-03-21T14:12:34.062Z,16.49
2023-03-21T14:14:34.388Z,16.48
2023-03-21T14:17:34.533Z,16.46
2023-03-21T14:19:34.569Z,16.45
2023-03-21T14:22:34.116Z,16.43
2023-03-21T14:24:34.880Z,16.44
2023-03-21T14:27:34.098Z,16.41
2023-03-21T14:30:34.186Z,16.37
2023-03-21T14:32:34.101Z,16.39
2023-03-21T14:34:34.835Z,16.37
2023-03-21T14:37:34.499Z,16.36
2023-03-21T14:39:34.582Z,16.36
2023-03-21T14:42:34.504Z,16.36
2023-03-21T14:45:34.549Z,16.37
2023-03-21T14:47:34.286Z,16.4
2023-03-21T14:50:34.401Z,16.43
2023-03-21T14:53:34.177Z,16.43
2023-03-21T14:55:34.310Z,16.42
2023-03-21T14:57:34.385Z,16.42
2023-03-21T15:03:34.164Z,16.37
2023-03-21T15:05:34.469Z,16.36
2023-03-21T15:07:34.546Z,16.37
2023-03-21T15:10:34.389Z,16.36
2023-03-21T15:12:34.473Z,16.36
2023-03-21T15:14:34.809Z,16.35
2023-03-21T15:16:34.862Z,16.35
2023-03-21T15:19:34.095Z,16.37
2023-03-21T15:22:34.093Z,16.36
2023-03-21T15:24:34.149Z,16.35
2023-03-21T15:27:34.095Z,16.34
2023-03-21T15:29:34.135Z,16.34
2023-03-21T15:31:34.198Z,16.33
2023-03-21T15:34:34.095Z,16.34
2023-03-21T15:36:34.570Z,16.34
2023-03-21T15:39:34.288Z,16.37
2023-03-21T15:41:34.608Z,16.37
2023-03-21T15:44:34.205Z,16.37
2023-03-21T15:47:34.665Z,16.37
2023-03-21T15:49:34.704Z,16.36
2023-03-21T15:52:34.099Z,16.29
2023-03-21T15:55:34.151Z,16.32
2023-03-21T15:57:34.250Z,16.32
2023-03-21T15:59:34.742Z,16.32
2023-03-21T16:02:34.082Z,16.29
2023-03-21T16:04:34.749Z,16.26
2023-03-21T16:07:34.100Z,16.26
2023-03-21T16:09:34.731Z,16.27
2023-03-21T16:12:34.444Z,16.24
2023-03-21T16:15:34.099Z,16.2
2023-03-21T16:17:35.001Z,16.19
2023-03-21T16:20:34.290Z,16.14
2023-03-21T16:23:34.082Z,16.14
2023-03-21T16:25:34.671Z,16.12
2023-03-21T16:28:34.396Z,16.16
2023-03-21T16:30:34.595Z,16.15
2023-03-21T16:32:35.152Z,16.14
2023-03-21T16:35:34.125Z,16.14
2023-03-21T16:37:34.199Z,16.15
2023-03-21T16:39:34.589Z,16.14
2023-03-21T16:42:34.135Z,16.16
2023-03-21T16:45:34.150Z,16.16
2023-03-21T16:47:34.625Z,16.16
2023-03-21T16:49:34.657Z,16.16
2023-03-21T16:52:34.125Z,16.18
2023-03-21T16:55:34.131Z,16.15
2023-03-21T16:58:34.196Z,16.12
2023-03-21T17:00:34.118Z,16.14
2023-03-21T17:03:34.712Z,16.12
2023-03-21T17:06:34.091Z,16.12
2023-03-21T17:08:34.190Z,16.12
2023-03-21T17:11:34.910Z,16.09
2023-03-21T17:14:34.087Z,16.1
2023-03-21T17:16:34.423Z,16.1
2023-03-21T17:20:34.100Z,16.04
2023-03-21T17:22:34.699Z,16.06
2023-03-21T17:25:34.141Z,16.04
2023-03-21T17:28:34.415Z,16.04
2023-03-21T17:31:34.905Z,16.06
2023-03-21T17:34:34.104Z,16.04
2023-03-21T17:36:35.134Z,16.03
2023-03-21T17:39:34.252Z,16
2023-03-21T17:42:34.128Z,15.98
2023-03-21T17:44:34.144Z,16.01
2023-03-21T17:46:34.458Z,16.02
2023-03-21T17:49:34.102Z,16.02
2023-03-21T17:51:34.417Z,16.03
2023-03-21T17:54:34.803Z,16.04
2023-03-21T17:57:34.105Z,16.02
2023-03-21T17:59:34.316Z,16.01
2023-03-21T18:02:34.098Z,15.96
2023-03-21T18:04:34.348Z,15.99
2023-03-21T18:08:04.398Z,16
2023-03-21T18:10:34.666Z,15.99
2023-03-21T18:13:34.672Z,15.93
2023-03-21T18:16:34.515Z,15.91
2023-03-21T18:18:34.616Z,15.93
2023-03-21T18:20:50.739Z,15.95
2023-03-21T18:22:34.904Z,15.95
2023-03-21T18:25:34.490Z,15.94
2023-03-21T18:28:34.329Z,15.89
2023-03-21T18:31:34.876Z,15.88
2023-03-21T18:33:34.878Z,15.86
2023-03-21T18:36:34.561Z,15.86
2023-03-21T18:39:34.440Z,15.85
2023-03-21T18:42:34.237Z,15.81
2023-03-21T18:44:34.359Z,15.77
2023-03-21T18:47:34.485Z,15.76
2023-03-21T18:50:12.925Z,15.74
2023-03-21T18:52:34.160Z,15.73
2023-03-21T18:55:45.270Z,15.71
2023-03-21T18:57:37.261Z,15.71
2023-03-21T19:00:34.207Z,15.69
2023-03-21T19:02:41.707Z,15.69
2023-03-21T19:05:34.537Z,15.67
2023-03-21T19:08:34.079Z,15.6
2023-03-21T19:10:34.357Z,15.57
2023-03-21T19:12:34.583Z,15.57
2023-03-21T19:15:34.930Z,15.54
2023-03-21T19:18:53.283Z,15.5
2023-03-21T19:20:34.155Z,15.47
2023-03-21T19:22:34.144Z,15.46
2023-03-21T19:24:34.846Z,15.46
2023-03-21T19:27:34.083Z,15.45
2023-03-21T19:30:34.889Z,15.43
2023-03-21T19:33:34.996Z,15.41
2023-03-21T19:36:34.626Z,15.4
2023-03-21T19:41:34.881Z,15.37
2023-03-21T19:44:34.112Z,15.35
2023-03-21T19:47:34.102Z,15.33
2023-03-21T19:49:55.743Z,15.31
2023-03-21T19:51:35.029Z,15.31
2023-03-21T19:54:34.185Z,15.3
2023-03-21T19:57:35.254Z,15.24
2023-03-21T20:00:34.196Z,15.23
2023-03-21T20:03:34.198Z,15.22
2023-03-21T20:05:35.592Z,15.21
2023-03-21T20:08:53.187Z,15.2
2023-03-21T20:10:34.137Z,15.18
2023-03-21T20:13:34.097Z,15.14
2023-03-21T20:15:42.667Z,15.12
2023-03-21T20:18:34.236Z,15.1
2023-03-21T20:21:44.270Z,15.05
2023-03-21T20:23:34.800Z,15.03
2023-03-21T20:26:34.095Z,15.02
2023-03-21T20:28:34.567Z,15.01
2023-03-21T20:30:34.809Z,14.96
2023-03-21T20:32:34.751Z,14.94
2023-03-21T20:36:19.693Z,14.9
2023-03-21T20:38:34.932Z,14.87
2023-03-21T20:41:34.107Z,14.85
2023-03-21T20:44:28.437Z,14.82
2023-03-21T20:46:37.082Z,14.81
2023-03-21T20:49:34.124Z,14.74
2023-03-21T20:54:35.402Z,14.71
2023-03-21T20:57:34.352Z,14.64
2023-03-21T21:00:34.317Z,14.63
2023-03-21T21:03:34.099Z,14.58
2023-03-21T21:05:35.274Z,14.54
2023-03-21T21:08:34.580Z,14.58
2023-03-21T21:12:05.948Z,14.59
2023-03-21T21:13:34.820Z,14.58
2023-03-21T21:16:34.119Z,14.59
2023-03-21T21:19:34.142Z,14.59
2023-03-21T21:22:34.173Z,14.55
2023-03-21T21:25:34.194Z,14.55
2023-03-21T21:27:34.119Z,14.55
2023-03-21T21:30:34.998Z,14.53
2023-03-21T21:32:34.758Z,14.49
2023-03-21T21:35:34.656Z,14.49
2023-03-21T21:38:34.542Z,14.46
2023-03-21T21:41:34.756Z,14.46
2023-03-21T21:43:34.135Z,14.48
2023-03-21T21:48:34.849Z,14.46
2023-03-21T21:51:36.624Z,14.46
2023-03-21T21:53:34.740Z,14.47
2023-03-21T21:56:35.066Z,14.48
2023-03-21T21:58:34.164Z,14.47
2023-03-21T22:00:34.724Z,14.46
2023-03-21T22:03:34.104Z,14.45
2023-03-21T22:05:35.594Z,14.4
2023-03-21T22:07:34.649Z,14.39
2023-03-21T22:09:34.654Z,14.39
2023-03-21T22:12:34.702Z,14.33
2023-03-21T22:15:34.891Z,14.26
2023-03-21T22:17:34.723Z,14.23
2023-03-21T22:19:34.137Z,14.26
2023-03-21T22:21:34.278Z,14.27
2023-03-21T22:24:34.855Z,14.26
2023-03-21T22:27:34.298Z,14.31
2023-03-21T22:29:34.713Z,14.32
2023-03-21T22:32:34.155Z,14.32
2023-03-21T22:34:34.209Z,14.33
2023-03-21T22:37:34.235Z,14.33
2023-03-21T22:40:34.292Z,14.34
2023-03-21T22:42:34.171Z,14.34
2023-03-21T22:45:39.911Z,14.34
2023-03-21T22:47:34.951Z,14.34
2023-03-21T22:50:34.425Z,14.35
2023-03-21T22:52:34.703Z,14.36
2023-03-21T22:55:34.449Z,14.34
2023-03-21T22:58:35.337Z,14.32
2023-03-21T23:01:37.000Z,14.31
2023-03-21T23:03:34.937Z,14.3
2023-03-21T23:05:35.245Z,14.29
2023-03-21T23:07:35.019Z,14.28
2023-03-21T23:10:34.713Z,14.28
2023-03-21T23:12:34.968Z,14.27
2023-03-21T23:15:34.146Z,14.27
2023-03-21T23:17:34.386Z,14.26
2023-03-21T23:20:34.976Z,14.25
2023-03-21T23:23:35.144Z,14.23
2023-03-21T23:26:34.148Z,14.18
2023-03-21T23:29:34.143Z,14.18
2023-03-21T23:32:34.786Z,14.15
2023-03-21T23:35:34.496Z,14.16
2023-03-21T23:37:34.708Z,14.15
2023-03-21T23:40:34.130Z,14.16
2023-03-21T23:42:34.133Z,14.16
2023-03-21T23:44:34.446Z,14.14
2023-03-21T23:47:34.469Z,14.12
2023-03-21T23:49:34.786Z,14.12
2023-03-21T23:52:34.676Z,14.1
2023-03-21T23:54:34.794Z,14.09
2023-03-21T23:57:34.419Z,14.06
2023-03-21T23:59:34.906Z,14.06
